< < Back
Terminal Aerodrome Forecast


Current Version              Previous Versions:   1  2  3  4  5  6  7  8  9  

Terminal Aerodrome Forecast

487
FTUS42 KTAE 272300
TAFDHN
TAF
KDHN 272320Z 2800/2824 33006KT P6SM SKC
     FM281400 04005KT P6SM SKC=



Latest METAR

531
SAUS70 KWBC 281300 RRA
MTRDHN
METAR KDHN 281253Z 34004KT 10SM CLR 01/M02 A3044 RMK AO2 SLP309
T00061017


USA.gov is the U.S. government's official web portal to all federal, state and local government web resources and services.